createdAt,value
2023-04-20T00:01:13.878Z,8.18
2023-04-20T00:03:41.330Z,8.35
2023-04-20T00:06:09.187Z,8.37
2023-04-20T00:08:36.254Z,8.59
2023-04-20T00:11:03.683Z,8.40
2023-04-20T00:13:30.727Z,8.42
2023-04-20T00:15:58.073Z,8.61
2023-04-20T00:18:25.063Z,8.72
2023-04-20T00:20:52.384Z,8.48
2023-04-20T00:23:19.449Z,8.62
2023-04-20T00:25:49.496Z,8.64
2023-04-20T00:28:16.558Z,8.58
2023-04-20T00:30:43.887Z,8.77
2023-04-20T00:33:10.916Z,8.65
2023-04-20T00:35:38.259Z,8.67
2023-04-20T00:38:05.697Z,8.78
2023-04-20T00:40:33.531Z,8.55
2023-04-20T00:43:12.360Z,8.48
2023-04-20T00:45:39.964Z,8.31
2023-04-20T00:48:07.574Z,8.47
2023-04-20T00:50:35.770Z,8.48
2023-04-20T00:53:03.248Z,8.31
2023-04-20T00:55:30.836Z,8.33
2023-04-20T00:57:58.460Z,8.69
2023-04-20T01:00:26.577Z,8.64
2023-04-20T01:02:53.721Z,8.51
2023-04-20T01:05:21.916Z,8.61
2023-04-20T01:07:49.547Z,8.59
2023-04-20T01:10:16.934Z,8.69
2023-04-20T01:12:43.955Z,8.78
2023-04-20T01:15:13.225Z,8.63
2023-04-20T01:17:40.626Z,8.48
2023-04-20T01:20:14.551Z,8.55
2023-04-20T01:22:49.911Z,8.39
2023-04-20T01:25:18.332Z,8.48
2023-04-20T01:27:46.528Z,8.47
2023-04-20T01:30:14.248Z,8.38
2023-04-20T01:32:41.376Z,8.50
2023-04-20T01:35:09.948Z,8.50
2023-04-20T01:37:39.466Z,8.65
2023-04-20T01:40:09.807Z,8.49
2023-04-20T01:42:37.063Z,8.48
2023-04-20T01:45:06.246Z,8.39
2023-04-20T01:47:34.114Z,8.51
2023-04-20T01:50:01.464Z,8.30
2023-04-20T01:52:28.633Z,8.28
2023-04-20T01:54:56.010Z,8.48
2023-04-20T01:57:25.061Z,8.51
2023-04-20T01:59:52.352Z,8.43
2023-04-20T02:02:19.436Z,8.32
2023-04-20T02:04:46.853Z,8.35
2023-04-20T02:07:13.807Z,8.43
2023-04-20T02:09:41.122Z,8.27
2023-04-20T02:12:10.326Z,8.14
2023-04-20T02:14:39.984Z,8.30
2023-04-20T02:17:11.637Z,8.18
2023-04-20T02:19:38.978Z,8.36
2023-04-20T02:22:06.615Z,8.32
2023-04-20T02:24:33.955Z,8.25
2023-04-20T02:27:02.512Z,8.18
2023-04-20T02:29:29.851Z,8.42
2023-04-20T02:31:56.905Z,8.22
2023-04-20T02:34:24.669Z,8.22
2023-04-20T02:36:51.675Z,7.93
2023-04-20T02:39:19.344Z,8.10
2023-04-20T02:41:46.642Z,8.01
2023-04-20T02:44:14.091Z,7.77
2023-04-20T02:46:41.517Z,7.80
2023-04-20T02:49:08.881Z,7.93
2023-04-20T02:51:40.640Z,7.86
2023-04-20T02:54:08.070Z,7.73
2023-04-20T02:56:35.697Z,7.83
2023-04-20T02:59:07.342Z,7.73
2023-04-20T03:02:04.249Z,7.46
2023-04-20T03:04:32.103Z,7.70
2023-04-20T03:07:07.908Z,7.69
2023-04-20T03:09:37.546Z,7.49
2023-04-20T03:12:13.281Z,7.51
2023-04-20T03:15:00.837Z,7.85
2023-04-20T03:17:47.176Z,7.49
2023-04-20T03:20:15.149Z,7.46
2023-04-20T03:22:42.267Z,7.54
2023-04-20T03:25:10.362Z,7.55
2023-04-20T03:28:06.347Z,7.51
2023-04-20T03:30:34.374Z,7.58
2023-04-20T03:33:06.956Z,7.44
2023-04-20T03:35:34.406Z,7.30
2023-04-20T03:38:01.646Z,7.29
2023-04-20T03:40:29.025Z,7.34
2023-04-20T03:42:56.135Z,7.18
2023-04-20T03:45:23.728Z,7.33
2023-04-20T03:47:50.758Z,7.08
2023-04-20T03:50:18.226Z,7.21
2023-04-20T03:52:45.482Z,7.53
2023-04-20T03:55:12.857Z,7.31
2023-04-20T03:57:45.686Z,7.53
2023-04-20T04:00:23.005Z,7.71
2023-04-20T04:02:57.859Z,7.49
2023-04-20T04:05:28.892Z,7.52
2023-04-20T04:07:56.148Z,7.54
2023-04-20T04:10:26.854Z,7.42
2023-04-20T04:12:57.979Z,7.65
2023-04-20T04:15:28.676Z,7.72
2023-04-20T04:18:03.492Z,7.72
2023-04-20T04:20:33.193Z,7.57
2023-04-20T04:23:02.808Z,7.43
2023-04-20T04:25:48.831Z,7.81
2023-04-20T04:28:21.423Z,8.03
2023-04-20T04:31:10.022Z,7.84
2023-04-20T04:33:45.063Z,7.73
2023-04-20T04:36:21.699Z,7.87
2023-04-20T04:41:38.548Z,8.25
2023-04-20T04:44:37.592Z,8.53
2023-04-20T04:47:07.072Z,8.39
2023-04-20T04:49:40.824Z,8.52
2023-04-20T04:52:09.871Z,8.23
2023-04-20T04:54:54.169Z,8.76
2023-04-20T04:57:27.348Z,8.62
2023-04-20T04:59:54.882Z,8.81
2023-04-20T05:02:28.464Z,8.72
2023-04-20T05:04:56.403Z,8.82
2023-04-20T05:07:24.833Z,8.97
2023-04-20T05:09:53.756Z,8.83
2023-04-20T05:12:27.194Z,8.80
2023-04-20T05:14:54.250Z,8.92
2023-04-20T05:17:21.586Z,9.14
2023-04-20T05:19:48.761Z,9.36
2023-04-20T05:22:16.397Z,8.98
2023-04-20T05:24:43.450Z,9.49
2023-04-20T05:27:11.355Z,9.55
2023-04-20T05:29:39.007Z,9.48
2023-04-20T05:32:06.815Z,9.57
2023-04-20T05:34:34.085Z,9.73
2023-04-20T05:37:08.892Z,9.84
2023-04-20T05:39:40.304Z,9.65
2023-04-20T05:42:07.669Z,9.87
2023-04-20T05:44:36.484Z,9.96
2023-04-20T05:47:08.595Z,9.91
2023-04-20T05:49:36.035Z,10.10
2023-04-20T05:52:03.657Z,10.38
2023-04-20T05:54:30.769Z,10.49
2023-04-20T05:56:58.934Z,10.25
2023-04-20T05:59:26.677Z,10.47
2023-04-20T06:01:54.055Z,10.20
2023-04-20T06:04:21.180Z,10.32
2023-04-20T06:06:48.642Z,10.48
2023-04-20T06:09:15.798Z,10.32
2023-04-20T06:11:43.233Z,10.55
2023-04-20T06:14:12.097Z,10.62
2023-04-20T06:16:39.562Z,10.36
2023-04-20T06:19:06.714Z,10.60
2023-04-20T06:21:35.257Z,11.19
2023-04-20T06:24:02.453Z,11.16
2023-04-20T06:26:29.860Z,10.62
2023-04-20T06:28:56.849Z,10.77
2023-04-20T06:31:24.129Z,11.20
2023-04-20T06:33:51.356Z,10.91
2023-04-20T06:36:18.608Z,11.14
2023-04-20T06:38:45.712Z,10.89
2023-04-20T06:41:12.974Z,10.98
2023-04-20T06:43:42.018Z,11.27
2023-04-20T06:46:09.303Z,11.26
2023-04-20T06:48:36.374Z,11.45
2023-04-20T06:51:03.893Z,11.81
2023-04-20T06:53:31.122Z,11.53
2023-04-20T06:55:58.447Z,11.83
2023-04-20T06:58:25.589Z,12.19
2023-04-20T07:00:52.872Z,11.83
2023-04-20T07:03:20.085Z,11.75
2023-04-20T07:05:47.658Z,11.83
2023-04-20T07:08:16.008Z,12.40
2023-04-20T07:10:43.730Z,12.09
2023-04-20T07:13:10.829Z,11.91
2023-04-20T07:15:38.159Z,12.07
2023-04-20T07:18:05.225Z,11.99
2023-04-20T07:20:33.075Z,12.02
2023-04-20T07:23:00.119Z,12.40
2023-04-20T07:25:27.850Z,12.60
2023-04-20T07:27:54.846Z,12.40
2023-04-20T07:30:22.134Z,12.17
2023-04-20T07:32:49.551Z,12.59
2023-04-20T07:35:17.119Z,12.48
2023-04-20T07:37:44.273Z,12.12
2023-04-20T07:40:11.867Z,12.29
2023-04-20T07:42:39.088Z,12.70
2023-04-20T07:45:07.706Z,12.35
2023-04-20T07:47:35.943Z,12.43
2023-04-20T07:50:07.328Z,12.99
2023-04-20T07:52:35.772Z,12.17
2023-04-20T07:55:05.444Z,12.47
2023-04-20T07:57:32.724Z,12.76
2023-04-20T08:00:00.257Z,12.60
2023-04-20T08:02:27.518Z,12.35
2023-04-20T08:04:55.282Z,12.15
2023-04-20T08:07:23.545Z,12.57
2023-04-20T08:09:50.836Z,12.82
2023-04-20T08:12:17.823Z,12.81
2023-04-20T08:14:45.476Z,12.46
2023-04-20T08:17:12.461Z,12.46
2023-04-20T08:19:40.483Z,12.26
2023-04-20T08:22:12.188Z,12.05
2023-04-20T08:24:39.531Z,12.20
2023-04-20T08:27:08.931Z,12.53
2023-04-20T08:29:36.803Z,11.77
2023-04-20T08:32:04.053Z,12.27
2023-04-20T08:34:31.462Z,12.33
2023-04-20T08:36:58.635Z,12.68
2023-04-20T08:39:26.505Z,12.71
2023-04-20T08:41:55.759Z,12.25
2023-04-20T08:44:24.410Z,12.09
2023-04-20T08:46:51.891Z,12.10
2023-04-20T08:49:20.971Z,12.32
2023-04-20T08:51:48.615Z,12.60
2023-04-20T08:54:16.774Z,12.19
2023-04-20T08:56:46.287Z,12.39
2023-04-20T08:59:15.322Z,13.04
2023-04-20T09:01:43.455Z,12.99
2023-04-20T09:04:20.558Z,13.53
2023-04-20T09:06:50.689Z,13.56
2023-04-20T09:09:23.102Z,13.64
2023-04-20T09:12:07.343Z,13.24
2023-04-20T09:14:48.291Z,13.01
2023-04-20T09:17:17.827Z,13.34
2023-04-20T09:19:45.910Z,13.27
2023-04-20T09:22:13.062Z,13.16
2023-04-20T09:25:18.193Z,13.05
2023-04-20T09:28:01.936Z,13.21
2023-04-20T09:30:43.296Z,13.09
2023-04-20T09:33:14.605Z,13.23
2023-04-20T09:35:43.408Z,13.90
2023-04-20T09:38:14.939Z,13.54
2023-04-20T09:40:42.557Z,13.96
2023-04-20T09:43:15.419Z,14.17
2023-04-20T09:45:43.831Z,14.11
2023-04-20T09:48:11.849Z,13.92
2023-04-20T09:50:48.582Z,14.14
2023-04-20T09:53:18.116Z,14.48
2023-04-20T09:55:51.256Z,14.63
2023-04-20T09:58:20.559Z,14.73
2023-04-20T10:00:48.221Z,14.57
2023-04-20T10:03:19.348Z,13.65
2023-04-20T10:05:47.175Z,13.79
2023-04-20T10:08:14.375Z,13.87
2023-04-20T10:10:49.758Z,14.22
2023-04-20T10:13:19.522Z,14.13
2023-04-20T10:15:47.446Z,14.21
2023-04-20T10:18:23.973Z,14.17
2023-04-20T10:21:03.701Z,14.49
2023-04-20T10:23:30.802Z,14.54
2023-04-20T10:26:00.686Z,14.07
2023-04-20T10:28:45.088Z,14.85
2023-04-20T10:31:14.144Z,14.90
2023-04-20T10:33:54.139Z,14.14
2023-04-20T10:36:31.044Z,14.61
2023-04-20T10:39:05.163Z,14.92
2023-04-20T10:41:32.494Z,14.66
2023-04-20T10:44:09.675Z,15.11
2023-04-20T10:46:37.168Z,15.83
2023-04-20T10:49:04.439Z,15.76
2023-04-20T10:51:32.376Z,14.80
2023-04-20T10:54:07.658Z,14.35
2023-04-20T10:56:42.115Z,15.18
2023-04-20T10:59:11.557Z,15.08
2023-04-20T11:01:39.863Z,15.20
2023-04-20T11:04:07.949Z,15.39
2023-04-20T11:06:35.815Z,14.93
2023-04-20T11:09:03.142Z,15.25
2023-04-20T11:11:30.672Z,15.21
2023-04-20T11:14:08.608Z,15.65
2023-04-20T11:16:49.242Z,15.69
2023-04-20T11:19:23.881Z,16.06
2023-04-20T11:21:51.334Z,15.72
2023-04-20T11:24:22.903Z,16.07
2023-04-20T11:26:51.093Z,15.82
2023-04-20T11:29:55.587Z,15.64
2023-04-20T11:32:23.174Z,16.08
2023-04-20T11:35:06.568Z,15.40
2023-04-20T11:37:49.001Z,16.11
2023-04-20T11:40:16.078Z,15.72
2023-04-20T11:42:43.827Z,15.74
2023-04-20T11:45:11.717Z,15.96
2023-04-20T11:47:41.166Z,15.78
2023-04-20T11:50:10.469Z,15.79
2023-04-20T11:52:37.896Z,16.06
2023-04-20T11:55:06.128Z,15.82
2023-04-20T11:57:34.693Z,15.70
2023-04-20T12:00:02.002Z,15.82
2023-04-20T12:02:29.667Z,15.73
2023-04-20T12:04:57.105Z,15.73
2023-04-20T12:07:24.550Z,15.42
2023-04-20T12:09:51.588Z,15.40
2023-04-20T12:12:19.995Z,16.36
2023-04-20T12:14:47.026Z,15.41
2023-04-20T12:17:14.324Z,15.57
2023-04-20T12:19:41.336Z,15.88
2023-04-20T12:22:08.643Z,15.98
2023-04-20T12:24:35.628Z,15.67
2023-04-20T12:27:03.972Z,15.68
2023-04-20T12:29:33.045Z,16.49
2023-04-20T12:32:00.533Z,16.79
2023-04-20T12:34:27.693Z,16.89
2023-04-20T12:36:55.050Z,16.48
2023-04-20T12:39:22.424Z,16.24
2023-04-20T12:41:49.687Z,16.15
2023-04-20T12:44:17.720Z,15.97
2023-04-20T12:46:45.543Z,15.51
2023-04-20T12:49:12.542Z,15.85
2023-04-20T12:51:40.698Z,16.05
2023-04-20T12:54:08.309Z,16.37
2023-04-20T12:56:36.184Z,16.08
2023-04-20T12:59:03.504Z,16.34
2023-04-20T13:01:31.095Z,16.43
2023-04-20T13:03:58.535Z,16.21
2023-04-20T13:06:26.663Z,16.53
2023-04-20T13:08:53.958Z,16.41
2023-04-20T13:11:22.120Z,17.54
2023-04-20T13:13:49.224Z,16.93
2023-04-20T13:16:16.661Z,17.23
2023-04-20T13:18:43.810Z,17.20
2023-04-20T13:21:11.072Z,16.93
2023-04-20T13:23:39.888Z,16.46
2023-04-20T13:26:07.678Z,16.82
2023-04-20T13:28:34.950Z,16.18
2023-04-20T13:31:02.240Z,16.60
2023-04-20T13:33:29.369Z,16.45
2023-04-20T13:35:56.812Z,16.42
2023-04-20T13:38:23.794Z,16.47
2023-04-20T13:40:51.079Z,16.67
2023-04-20T13:43:19.467Z,16.83
2023-04-20T13:45:48.906Z,16.93
2023-04-20T13:48:16.037Z,16.49
2023-04-20T13:50:43.394Z,16.27
2023-04-20T13:53:10.417Z,16.86
2023-04-20T13:55:37.721Z,16.56
2023-04-20T13:58:04.732Z,16.31
2023-04-20T14:00:33.606Z,16.76
2023-04-20T14:03:02.237Z,17.01
2023-04-20T14:05:29.753Z,16.90
2023-04-20T14:08:01.394Z,16.61
2023-04-20T14:10:29.106Z,17.43
2023-04-20T14:12:56.551Z,16.34
2023-04-20T14:15:23.883Z,16.52
2023-04-20T14:17:52.438Z,16.63
2023-04-20T14:20:20.428Z,16.18
2023-04-20T14:22:47.449Z,16.46
2023-04-20T14:25:14.762Z,16.26
2023-04-20T14:27:41.803Z,16.62
2023-04-20T14:30:09.804Z,16.09
2023-04-20T14:32:36.937Z,16.81
2023-04-20T14:35:05.707Z,16.50
2023-04-20T14:37:33.142Z,15.90
2023-04-20T14:40:00.490Z,16.05
2023-04-20T14:42:27.528Z,16.47
2023-04-20T14:44:54.835Z,16.21
2023-04-20T14:47:21.899Z,16.05
2023-04-20T14:49:49.157Z,16.01
2023-04-20T14:52:16.193Z,16.33
2023-04-20T14:54:43.458Z,16.08
2023-04-20T14:57:10.416Z,16.19
2023-04-20T14:59:37.732Z,16.22
2023-04-20T15:02:05.900Z,16.24
2023-04-20T15:04:33.915Z,16.36
2023-04-20T15:07:01.269Z,15.91
2023-04-20T15:09:28.670Z,16.72
2023-04-20T15:11:56.988Z,15.77
2023-04-20T15:14:24.736Z,15.80
2023-04-20T15:16:52.799Z,15.85
2023-04-20T15:19:22.640Z,16.13
2023-04-20T15:21:50.877Z,15.80
2023-04-20T15:24:18.431Z,15.99
2023-04-20T15:26:45.744Z,15.47
2023-04-20T15:29:13.172Z,16.25
2023-04-20T15:31:40.602Z,16.14
2023-04-20T15:34:07.982Z,15.96
2023-04-20T15:36:35.019Z,15.98
2023-04-20T15:39:02.599Z,15.97
2023-04-20T15:41:29.724Z,15.57
2023-04-20T15:43:57.086Z,15.62
2023-04-20T15:46:26.442Z,15.70
2023-04-20T15:48:54.067Z,15.84
2023-04-20T15:51:21.119Z,15.82
2023-04-20T15:53:50.734Z,15.74
2023-04-20T15:56:22.684Z,15.72
2023-04-20T15:58:51.646Z,15.93
2023-04-20T16:01:19.745Z,15.01
2023-04-20T16:03:48.419Z,14.92
2023-04-20T16:06:15.848Z,15.32
2023-04-20T16:08:43.277Z,15.38
2023-04-20T16:11:10.562Z,14.83
2023-04-20T16:13:37.961Z,14.85
2023-04-20T16:16:05.458Z,14.96
2023-04-20T16:18:33.036Z,15.13
2023-04-20T16:21:00.288Z,14.94
2023-04-20T16:23:28.762Z,14.85
2023-04-20T16:25:55.960Z,14.45
2023-04-20T16:28:23.413Z,14.57
2023-04-20T16:30:50.836Z,14.16
2023-04-20T16:33:19.138Z,14.21
2023-04-20T16:35:46.665Z,14.05
2023-04-20T16:38:14.299Z,14.19
2023-04-20T16:40:43.623Z,13.61
2023-04-20T16:43:11.515Z,13.76
2023-04-20T16:45:39.491Z,13.84
2023-04-20T16:48:08.393Z,13.73
2023-04-20T16:50:38.079Z,13.60
2023-04-20T16:53:09.030Z,13.58
2023-04-20T16:55:38.072Z,13.59
2023-04-20T16:58:06.989Z,13.47
2023-04-20T17:00:35.662Z,13.28
2023-04-20T17:03:10.936Z,13.14
2023-04-20T17:05:42.047Z,13.11
2023-04-20T17:08:12.453Z,13.14
2023-04-20T17:10:41.855Z,12.79
2023-04-20T17:13:11.331Z,12.87
2023-04-20T17:15:40.453Z,13.12
2023-04-20T17:18:10.417Z,12.53
2023-04-20T17:20:39.822Z,12.52
2023-04-20T17:23:12.477Z,12.32
2023-04-20T17:25:42.933Z,12.18
2023-04-20T17:28:17.089Z,12.64
2023-04-20T17:30:45.754Z,12.00
2023-04-20T17:33:14.777Z,12.15
2023-04-20T17:35:43.366Z,12.17
2023-04-20T17:38:11.282Z,11.91
2023-04-20T17:40:38.788Z,11.99
2023-04-20T17:43:07.197Z,11.63
2023-04-20T17:45:38.031Z,11.73
2023-04-20T17:48:09.504Z,11.64
2023-04-20T17:50:37.813Z,11.66
2023-04-20T17:53:11.037Z,11.57
2023-04-20T17:55:43.862Z,11.82
2023-04-20T17:58:13.351Z,11.52
2023-04-20T18:00:43.875Z,11.73
2023-04-20T18:03:14.982Z,11.57
2023-04-20T18:05:46.793Z,11.48
2023-04-20T18:08:17.913Z,11.37
2023-04-20T18:10:47.913Z,11.41
2023-04-20T18:13:16.794Z,11.32
2023-04-20T18:15:44.936Z,11.25
2023-04-20T18:18:14.107Z,11.26
2023-04-20T18:20:44.569Z,11.19
2023-04-20T18:23:14.118Z,11.19
2023-04-20T18:25:43.124Z,11.17
2023-04-20T18:28:15.651Z,11.12
2023-04-20T18:30:47.604Z,11.17
2023-04-20T18:33:22.256Z,11.18
2023-04-20T18:35:53.674Z,10.72
2023-04-20T18:38:26.341Z,10.84
2023-04-20T18:40:54.241Z,10.92
2023-04-20T18:43:26.913Z,10.91
2023-04-20T18:45:56.379Z,10.84
2023-04-20T18:48:33.884Z,10.70
2023-04-20T18:51:05.789Z,10.84
2023-04-20T18:53:34.691Z,10.80
2023-04-20T18:56:05.363Z,10.57
2023-04-20T18:58:34.404Z,10.60
2023-04-20T19:01:03.840Z,10.42
2023-04-20T19:03:33.797Z,10.80
2023-04-20T19:06:02.223Z,10.63
2023-04-20T19:08:32.873Z,10.86
2023-04-20T19:11:01.274Z,10.65
2023-04-20T19:13:37.633Z,10.66
2023-04-20T19:16:07.074Z,10.56
2023-04-20T19:18:36.136Z,10.79
2023-04-20T19:21:07.750Z,10.71
2023-04-20T19:23:38.884Z,10.44
2023-04-20T19:26:08.344Z,10.46
2023-04-20T19:28:41.694Z,10.58
2023-04-20T19:31:11.320Z,10.40
2023-04-20T19:33:43.450Z,10.31
2023-04-20T19:36:23.594Z,10.14
2023-04-20T19:38:55.838Z,10.14
2023-04-20T19:41:24.395Z,9.95
2023-04-20T19:43:53.344Z,9.85
2023-04-20T19:46:21.934Z,10.03
2023-04-20T19:48:53.809Z,9.98
2023-04-20T19:51:26.124Z,9.98
2023-04-20T19:54:01.651Z,10.06
2023-04-20T19:56:33.755Z,9.78
2023-04-20T19:59:05.723Z,10.05
2023-04-20T20:01:41.253Z,10.06
2023-04-20T20:04:20.599Z,10.17
2023-04-20T20:06:51.141Z,9.79
2023-04-20T20:09:23.201Z,9.83
2023-04-20T20:11:52.223Z,9.73
2023-04-20T20:14:20.358Z,9.70
2023-04-20T20:16:49.477Z,9.68
2023-04-20T20:19:22.273Z,9.78
2023-04-20T20:21:50.804Z,9.70
2023-04-20T20:24:22.866Z,9.81
2023-04-20T20:26:51.069Z,9.93
2023-04-20T20:29:19.532Z,10.01
2023-04-20T20:31:50.675Z,9.87
2023-04-20T20:34:18.702Z,9.68
2023-04-20T20:36:48.624Z,9.58
2023-04-20T20:39:17.940Z,9.69
2023-04-20T20:41:50.730Z,9.75
2023-04-20T20:44:22.932Z,9.66
2023-04-20T20:46:57.711Z,9.69
2023-04-20T20:49:29.821Z,9.68
2023-04-20T20:51:58.672Z,9.53
2023-04-20T20:54:27.907Z,9.63
2023-04-20T20:56:55.763Z,9.62
2023-04-20T20:59:23.409Z,9.73
2023-04-20T21:01:56.903Z,9.66
2023-04-20T21:04:26.271Z,9.59
2023-04-20T21:06:54.711Z,9.50
2023-04-20T21:09:25.777Z,9.51
2023-04-20T21:11:54.859Z,9.49
2023-04-20T21:14:24.727Z,9.35
2023-04-20T21:16:54.008Z,9.48
2023-04-20T21:19:24.773Z,9.64
2023-04-20T21:21:59.670Z,9.50
2023-04-20T21:24:32.861Z,9.52
2023-04-20T21:27:00.166Z,9.55
2023-04-20T21:29:30.311Z,9.54
2023-04-20T21:32:00.779Z,9.40
2023-04-20T21:34:30.713Z,9.44
2023-04-20T21:37:07.062Z,9.33
2023-04-20T21:39:37.272Z,9.42
2023-04-20T21:42:07.201Z,9.40
2023-04-20T21:44:35.440Z,9.32
2023-04-20T21:47:09.424Z,9.56
2023-04-20T21:49:37.749Z,9.25
2023-04-20T21:52:07.831Z,9.26
2023-04-20T21:54:36.072Z,9.24
2023-04-20T21:57:06.642Z,9.22
2023-04-20T21:59:36.645Z,9.27
2023-04-20T22:02:06.632Z,9.14
2023-04-20T22:04:35.062Z,9.15
2023-04-20T22:07:02.862Z,9.09
2023-04-20T22:09:32.415Z,8.97
2023-04-20T22:12:02.335Z,9.06
2023-04-20T22:14:32.478Z,9.15
2023-04-20T22:17:01.848Z,9.03
2023-04-20T22:19:31.838Z,9.02
2023-04-20T22:22:02.050Z,8.98
2023-04-20T22:24:34.460Z,8.67
2023-04-20T22:27:06.524Z,8.85
2023-04-20T22:29:36.368Z,8.58
2023-04-20T22:32:11.582Z,8.60
2023-04-20T22:34:45.308Z,8.80
2023-04-20T22:37:12.578Z,8.73
2023-04-20T22:39:50.526Z,8.75
2023-04-20T22:42:17.927Z,8.69
2023-04-20T22:44:48.447Z,8.81
2023-04-20T22:47:21.800Z,8.96
2023-04-20T22:49:53.108Z,8.75
2023-04-20T22:52:22.274Z,8.92
2023-04-20T22:54:51.571Z,8.91
2023-04-20T22:57:23.135Z,8.74
2023-04-20T22:59:53.252Z,8.66
2023-04-20T23:02:23.233Z,8.73
2023-04-20T23:04:56.927Z,8.65
2023-04-20T23:07:34.130Z,8.70
2023-04-20T23:10:01.620Z,8.69
2023-04-20T23:12:31.297Z,8.66
2023-04-20T23:15:02.168Z,8.83
2023-04-20T23:17:36.688Z,8.58
2023-04-20T23:20:07.917Z,8.55
2023-04-20T23:22:39.768Z,8.47
2023-04-20T23:25:07.759Z,8.43
2023-04-20T23:27:37.312Z,8.58
2023-04-20T23:30:11.883Z,8.33
2023-04-20T23:32:43.192Z,8.40
2023-04-20T23:35:12.381Z,8.64
2023-04-20T23:37:41.721Z,8.76
2023-04-20T23:40:10.596Z,8.69
2023-04-20T23:42:39.764Z,8.84
2023-04-20T23:45:08.011Z,8.62
2023-04-20T23:47:35.257Z,8.59
2023-04-20T23:50:08.723Z,8.45
2023-04-20T23:52:36.304Z,8.52
2023-04-20T23:55:13.549Z,8.41
2023-04-20T23:57:40.639Z,8.23
